Audubon, New Jersey
Current Conditions -  °F | °C
As of 4:54 PM on Friday 19 Dec 2014 (Local Time) from KPHL Reporting Station
Few Clouds Few Clouds  
Wind Chill: 33°   Ceiling: Unl
Heat Index: 40°   Visibility: 10mi
Dew Point: 21°   Wind: 10mph
Humidity: 47%   Direction: 320°NW
Pressure: 30.12"   Gusts: 21mph
Location:  39.89°N, 75.09°W
Report Text: KPHL 192154Z 32009G18KT 10SM FEW035 04/M06 A3012 RMK AO2 SLP200 T00441061
Loading
Personal Weather Stations






























Interactive Weather Map New forecast layout! Learn more

10-Day Weather Forecast

Advertisements
Track Severe Weather on mobile